Time;durP1;ratioP1;P1;durP2;ratioP2;P2;SDS_P1;SDS_P2;PMS_P1;PMS_P2;Temp;Humidity;BMP_temperature;BMP_pressure;BME280_temperature;BME280_humidity;BME280_pressure;Samples;Min_cycle;Max_cycle;Signal;HPM_P1;HPM_P2
2020/12/01 00:00:33;;;;;;;6.10;5.50;;;5.30;99.90;;;;;;5051977;28;20248;-72
2020/12/01 00:02:58;;;;;;;6.87;6.00;;;5.30;99.90;;;;;;5043681;28;20575;-72
2020/12/01 00:05:24;;;;;;;6.50;5.80;;;5.20;99.90;;;;;;5053115;28;20174;-72
2020/12/01 00:07:50;;;;;;;7.13;6.13;;;5.20;99.90;;;;;;5040854;28;20178;-72
2020/12/01 00:10:17;;;;;;;7.80;6.60;;;5.20;99.90;;;;;;5050837;28;20824;-72
2020/12/01 00:12:44;;;;;;;7.87;6.43;;;5.20;99.90;;;;;;5055276;28;20176;-72
2020/12/01 00:15:12;;;;;;;6.07;5.47;;;5.20;99.90;;;;;;5054788;28;20433;-72
2020/12/01 00:17:37;;;;;;;6.63;5.83;;;5.20;99.90;;;;;;5035957;28;20428;-72
2020/12/01 00:20:05;;;;;;;6.40;5.80;;;5.20;99.90;;;;;;5049327;28;20456;-72
2020/12/01 00:22:31;;;;;;;7.20;4.97;;;5.20;99.90;;;;;;5038678;28;20191;-72
2020/12/01 00:24:57;;;;;;;5.53;4.93;;;5.10;99.90;;;;;;5042041;28;20422;-72
2020/12/01 00:27:22;;;;;;;5.30;4.80;;;5.00;99.90;;;;;;5042354;28;20304;-72
2020/12/01 00:29:48;;;;;;;5.30;4.80;;;5.10;99.90;;;;;;5043631;28;20992;-72
2020/12/01 00:32:13;;;;;;;6.00;5.30;;;5.10;99.90;;;;;;5035314;28;20185;-72
2020/12/01 00:34:39;;;;;;;5.30;4.80;;;5.10;99.90;;;;;;5044800;28;20216;-73
2020/12/01 00:37:04;;;;;;;4.97;4.47;;;5.00;99.90;;;;;;5046661;28;20194;-71
2020/12/01 00:39:30;;;;;;;5.63;5.03;;;5.00;99.90;;;;;;5046847;28;20217;-72
2020/12/01 00:41:56;;;;;;;4.80;4.40;;;5.10;99.90;;;;;;5054886;28;20182;-72
2020/12/01 00:44:22;;;;;;;5.60;5.10;;;5.10;99.90;;;;;;5048476;28;20201;-72
2020/12/01 00:46:47;;;;;;;4.10;3.80;;;5.20;99.90;;;;;;5045593;28;20497;-72
2020/12/01 00:49:13;;;;;;;5.23;4.73;;;5.20;99.90;;;;;;5041933;28;20217;-71
2020/12/01 00:51:38;;;;;;;4.80;4.40;;;5.20;99.90;;;;;;5047052;28;20192;-72
2020/12/01 00:54:04;;;;;;;4.63;4.17;;;5.30;99.90;;;;;;5054770;28;20190;-72
2020/12/01 00:56:30;;;;;;;4.40;3.80;;;5.20;99.90;;;;;;5054458;28;20215;-72
2020/12/01 00:58:55;;;;;;;4.33;3.90;;;5.20;99.90;;;;;;5052299;28;20222;-72
2020/12/01 01:01:21;;;;;;;3.90;3.60;;;5.20;99.90;;;;;;5054420;28;20196;-72
2020/12/01 01:03:49;;;;;;;4.10;3.80;;;5.20;99.90;;;;;;5045934;28;20187;-72
2020/12/01 01:06:15;;;;;;;5.70;4.47;;;5.20;99.90;;;;;;5047423;28;20192;-72
2020/12/01 01:08:41;;;;;;;9.10;4.87;;;5.20;99.90;;;;;;5038469;28;20451;-72
2020/12/01 01:11:08;;;;;;;4.67;4.17;;;5.20;99.90;;;;;;5042931;28;20424;-72
2020/12/01 01:13:35;;;;;;;4.57;4.17;;;5.10;99.90;;;;;;5048716;28;20260;-72
2020/12/01 01:16:01;;;;;;;4.73;4.33;;;5.10;99.90;;;;;;5045931;28;20503;-72
2020/12/01 01:18:26;;;;;;;5.37;4.87;;;5.10;99.90;;;;;;5053892;28;20921;-72
2020/12/01 01:20:52;;;;;;;5.10;4.60;;;5.20;99.90;;;;;;5038264;28;20275;-72
2020/12/01 01:23:17;;;;;;;4.97;4.47;;;5.30;99.90;;;;;;5034830;28;20172;-72
2020/12/01 01:25:43;;;;;;;5.97;5.13;;;5.30;99.90;;;;;;5041069;28;20648;-72
2020/12/01 01:28:09;;;;;;;6.37;5.27;;;5.30;99.90;;;;;;5045602;28;20181;-72
2020/12/01 01:30:36;;;;;;;4.80;4.30;;;5.30;99.90;;;;;;5041518;28;20202;-72
2020/12/01 01:33:01;;;;;;;5.27;4.77;;;5.30;99.90;;;;;;5050445;28;20201;-72
2020/12/01 01:35:27;;;;;;;5.77;5.10;;;5.40;99.90;;;;;;5045457;28;20451;-72
2020/12/01 01:37:52;;;;;;;5.03;4.53;;;5.40;99.90;;;;;;5047722;28;20266;-72
2020/12/01 01:40:24;;;;;;;7.10;6.00;;;5.40;99.90;;;;;;5035440;28;20207;-72
2020/12/01 01:42:51;;;;;;;5.57;5.07;;;5.40;99.90;;;;;;5048743;28;20175;-72
2020/12/01 01:45:37;;;;;;;5.37;4.87;;;5.40;99.90;;;;;;5034996;28;20417;-72
2020/12/01 01:48:11;;;;;;;6.20;5.60;;;5.50;99.90;;;;;;5040127;28;20750;-72
2020/12/01 01:50:37;;;;;;;6.13;5.53;;;5.50;99.90;;;;;;5042824;28;20416;-72
2020/12/01 01:53:03;;;;;;;6.03;5.43;;;5.50;99.90;;;;;;5046689;28;20420;-72
2020/12/01 01:55:28;;;;;;;5.43;4.93;;;5.50;99.90;;;;;;5044746;28;20189;-72
2020/12/01 01:58:00;;;;;;;6.33;5.07;;;5.40;99.90;;;;;;5045767;28;20460;-72
2020/12/01 02:01:08;;;;;;;5.40;4.47;;;5.40;99.90;;;;;;5037365;28;20201;-72
2020/12/01 02:03:45;;;;;;;4.47;4.07;;;5.40;99.90;;;;;;5050106;28;20434;-72
2020/12/01 02:06:19;;;;;;;4.93;3.90;;;5.40;99.90;;;;;;5042203;28;20424;-72
2020/12/01 02:08:50;;;;;;;4.63;4.23;;;5.40;99.90;;;;;;5049922;28;20437;-72
2020/12/01 02:11:16;;;;;;;6.47;4.70;;;5.40;99.90;;;;;;5041590;28;20414;-72
2020/12/01 02:13:53;;;;;;;5.47;4.50;;;5.40;99.90;;;;;;5035296;28;20421;-72
2020/12/01 02:16:19;;;;;;;4.97;4.40;;;5.40;99.90;;;;;;5047847;28;20184;-72
2020/12/01 02:18:44;;;;;;;4.10;3.70;;;5.40;99.90;;;;;;5034572;28;20457;-72
2020/12/01 02:21:30;;;;;;;3.60;3.30;;;5.40;99.90;;;;;;5053999;28;20166;-72
2020/12/01 02:23:59;;;;;;;3.63;3.30;;;5.40;99.90;;;;;;5043036;28;20250;-72
2020/12/01 02:26:25;;;;;;;4.17;3.77;;;5.40;99.90;;;;;;5047645;28;20916;-72
2020/12/01 02:28:51;;;;;;;4.77;4.27;;;5.30;99.90;;;;;;5043657;28;20477;-72
2020/12/01 02:31:16;;;;;;;4.23;3.90;;;5.40;99.90;;;;;;5043662;28;20495;-72
2020/12/01 02:33:42;;;;;;;5.40;4.90;;;5.40;99.90;;;;;;5032307;28;20189;-72
2020/12/01 02:36:07;;;;;;;6.07;4.73;;;5.40;99.90;;;;;;5044097;28;20188;-72
2020/12/01 02:38:33;;;;;;;5.30;4.80;;;5.40;99.90;;;;;;5039152;28;20210;-72
2020/12/01 02:40:58;;;;;;;7.67;5.43;;;5.30;99.90;;;;;;5034106;28;20178;-72
2020/12/01 02:43:24;;;;;;;6.90;5.10;;;5.30;99.90;;;;;;5052731;28;20174;-72
2020/12/01 02:45:49;;;;;;;6.07;5.37;;;5.40;99.90;;;;;;5045176;28;20214;-72
2020/12/01 02:48:15;;;;;;;6.83;5.67;;;5.40;99.90;;;;;;5035933;28;20277;-72
2020/12/01 02:50:40;;;;;;;6.57;5.87;;;5.40;99.90;;;;;;5047132;28;20620;-72
2020/12/01 02:53:06;;;;;;;7.30;6.20;;;5.50;99.90;;;;;;5049547;28;20256;-72
2020/12/01 02:55:31;;;;;;;6.20;5.60;;;5.50;99.90;;;;;;5048771;28;20191;-72
2020/12/01 02:57:57;;;;;;;6.53;5.93;;;5.60;99.90;;;;;;5033856;28;20211;-72
2020/12/01 03:00:23;;;;;;;7.33;6.13;;;5.50;99.90;;;;;;5049472;28;20214;-72
2020/12/01 03:02:49;;;;;;;8.50;6.53;;;5.50;99.90;;;;;;5046866;28;20748;-72
2020/12/01 03:05:14;;;;;;;9.13;6.57;;;5.50;99.90;;;;;;5052154;28;20413;-72
2020/12/01 03:07:40;;;;;;;9.23;7.23;;;5.40;99.90;;;;;;5040502;28;20657;-72
2020/12/01 03:10:06;;;;;;;7.63;6.67;;;5.40;99.90;;;;;;5047989;28;20613;-72
2020/12/01 03:12:32;;;;;;;6.53;5.80;;;5.40;99.90;;;;;;5044241;28;20196;-72
2020/12/01 03:14:59;;;;;;;7.30;6.30;;;5.40;99.90;;;;;;5052664;28;20411;-72
2020/12/01 03:17:24;;;;;;;5.90;5.30;;;5.50;99.90;;;;;;5035522;28;20206;-72
2020/12/01 03:19:50;;;;;;;6.77;6.03;;;5.50;99.90;;;;;;5040671;28;20543;-72
2020/12/01 03:22:15;;;;;;;8.13;6.00;;;5.50;99.90;;;;;;5033701;28;20538;-72
2020/12/01 03:24:41;;;;;;;6.77;5.37;;;5.50;99.90;;;;;;5033083;28;20187;-72
2020/12/01 03:27:06;;;;;;;5.67;5.10;;;5.50;99.90;;;;;;5040498;28;20258;-72
2020/12/01 03:29:32;;;;;;;5.57;5.03;;;5.50;99.90;;;;;;5042325;28;20281;-72
2020/12/01 03:31:57;;;;;;;6.47;5.70;;;5.50;99.90;;;;;;5040231;28;20182;-72
2020/12/01 03:34:23;;;;;;;6.50;5.40;;;5.40;99.90;;;;;;5048518;28;20681;-72
2020/12/01 03:36:49;;;;;;;5.40;4.90;;;5.40;99.90;;;;;;5035902;28;20187;-72
2020/12/01 03:39:14;;;;;;;7.10;6.40;;;5.40;99.90;;;;;;5046207;28;20292;-72
2020/12/01 03:41:40;;;;;;;7.40;5.73;;;5.40;99.90;;;;;;5049657;28;20426;-72
2020/12/01 03:44:05;;;;;;;8.13;7.20;;;5.30;99.90;;;;;;5040055;28;20211;-72
2020/12/01 03:46:31;;;;;;;7.80;6.30;;;5.30;99.90;;;;;;5033112;28;20280;-72
2020/12/01 03:48:59;;;;;;;7.23;6.40;;;5.30;99.90;;;;;;5050080;28;20336;-73
2020/12/01 03:51:26;;;;;;;7.30;6.03;;;5.30;99.90;;;;;;5052376;28;20514;-72
2020/12/01 03:53:52;;;;;;;7.87;6.33;;;5.20;99.90;;;;;;5052197;28;20943;-72
2020/12/01 03:56:19;;;;;;;7.60;6.60;;;5.10;99.90;;;;;;5046924;28;20444;-72
2020/12/01 03:58:45;;;;;;;7.50;6.60;;;5.10;99.90;;;;;;5032706;28;20214;-72
2020/12/01 04:01:10;;;;;;;11.50;7.50;;;5.10;99.90;;;;;;5049212;28;20791;-72
2020/12/01 04:03:36;;;;;;;9.97;7.83;;;5.00;99.90;;;;;;5043556;28;20188;-72
2020/12/01 04:06:03;;;;;;;9.87;7.30;;;5.00;99.90;;;;;;5053096;28;20267;-72
2020/12/01 04:08:28;;;;;;;8.40;7.37;;;5.00;99.90;;;;;;5041453;28;20174;-72
2020/12/01 04:10:54;;;;;;;8.50;7.30;;;5.00;99.90;;;;;;5047052;28;20423;-72
2020/12/01 04:13:19;;;;;;;9.87;7.27;;;5.00;99.90;;;;;;5048136;28;20177;-72
2020/12/01 04:15:45;;;;;;;7.97;7.13;;;4.90;99.90;;;;;;5055520;28;20186;-72
2020/12/01 04:18:11;;;;;;;10.60;7.87;;;5.00;99.90;;;;;;5046263;28;20667;-71
2020/12/01 04:20:36;;;;;;;8.80;7.30;;;5.00;99.90;;;;;;5050116;28;20171;-72
2020/12/01 04:23:02;;;;;;;10.37;8.33;;;5.10;99.90;;;;;;5044127;28;20174;-71
2020/12/01 04:25:28;;;;;;;8.50;7.20;;;5.20;99.90;;;;;;5047656;28;20261;-72
2020/12/01 04:27:54;;;;;;;10.03;7.17;;;5.10;99.90;;;;;;5057161;28;20530;-72
2020/12/01 04:30:20;;;;;;;8.40;7.53;;;4.90;99.90;;;;;;5038892;28;20752;-72
2020/12/01 04:32:46;;;;;;;8.97;7.43;;;4.90;99.90;;;;;;5042503;28;20425;-72
2020/12/01 04:35:14;;;;;;;10.30;7.83;;;4.90;99.90;;;;;;5051794;28;20422;-72
2020/12/01 04:37:40;;;;;;;11.20;8.57;;;5.00;99.90;;;;;;5034989;28;20430;-71
2020/12/01 04:40:08;;;;;;;11.53;8.50;;;5.10;99.90;;;;;;5043644;28;20462;-72
2020/12/01 04:42:49;;;;;;;10.17;7.20;;;5.10;99.90;;;;;;5055332;28;20431;-72
2020/12/01 04:45:14;;;;;;;11.13;8.60;;;5.20;99.90;;;;;;5039491;28;20429;-72
2020/12/01 04:47:55;;;;;;;13.23;9.57;;;5.30;99.90;;;;;;5042954;28;20539;-72
2020/12/01 04:50:35;;;;;;;10.80;8.30;;;5.40;99.90;;;;;;5034739;28;20223;-72
2020/12/01 04:53:38;;;;;;;10.47;7.60;;;5.40;99.90;;;;;;5047721;28;20459;-72
2020/12/01 04:56:16;;;;;;;11.60;8.30;;;5.40;99.90;;;;;;5042227;28;20439;-72
2020/12/01 04:59:09;;;;;;;10.67;8.17;;;5.50;99.90;;;;;;5042891;28;20878;-72
2020/12/01 05:01:53;;;;;;;10.27;8.33;;;5.50;99.90;;;;;;5035483;28;20452;-72
2020/12/01 05:04:27;;;;;;;10.47;8.70;;;5.50;99.90;;;;;;5048947;28;20540;-72
2020/12/01 05:07:39;;;;;;;9.10;7.90;;;5.60;99.90;;;;;;5053376;28;20529;-72
2020/12/01 05:10:12;;;;;;;11.20;8.80;;;5.60;99.90;;;;;;5054479;28;20459;-72
2020/12/01 05:12:41;;;;;;;11.13;8.50;;;5.70;99.90;;;;;;5046871;28;20993;-72
2020/12/01 05:15:16;;;;;;;11.50;9.10;;;5.60;99.90;;;;;;5035069;28;20429;-72
2020/12/01 05:18:08;;;;;;;10.70;9.00;;;5.60;99.90;;;;;;5043204;28;20478;-72
2020/12/01 05:21:04;;;;;;;11.40;8.60;;;5.50;99.90;;;;;;5042228;28;20458;-72
2020/12/01 05:23:39;;;;;;;11.50;9.03;;;5.50;99.90;;;;;;5048245;28;20410;-72
2020/12/01 05:26:10;;;;;;;13.90;10.30;;;5.50;99.90;;;;;;5043018;28;20429;-72
2020/12/01 05:28:51;;;;;;;11.27;9.13;;;5.40;99.90;;;;;;5048851;28;20795;-72
2020/12/01 05:31:20;;;;;;;15.60;10.50;;;5.50;99.90;;;;;;5034935;28;20428;-72
2020/12/01 05:33:57;;;;;;;15.80;11.20;;;5.60;99.90;;;;;;5042744;28;20406;-72
2020/12/01 05:36:35;;;;;;;12.87;9.80;;;5.60;99.90;;;;;;5045301;28;20423;-72
2020/12/01 05:39:13;;;;;;;12.17;9.10;;;5.60;99.90;;;;;;5036866;28;20465;-72
2020/12/01 05:41:39;;;;;;;12.50;8.70;;;5.60;99.90;;;;;;5047693;28;20433;-72
2020/12/01 05:44:27;;;;;;;11.60;9.30;;;5.70;99.90;;;;;;5037137;28;20472;-72
2020/12/01 05:47:05;;;;;;;13.97;9.50;;;5.70;99.90;;;;;;5049503;28;20478;-72
2020/12/01 05:49:40;;;;;;;13.00;9.20;;;5.70;99.90;;;;;;5045473;28;20466;-73
2020/12/01 05:52:26;;;;;;;13.70;12.07;;;5.80;99.90;;;;;;5036492;28;20453;-73
2020/12/01 05:55:06;;;;;;;14.67;12.60;;;5.80;99.90;;;;;;5047060;28;20730;-73
2020/12/01 05:57:32;;;;;;;15.07;11.87;;;5.80;99.90;;;;;;5041449;28;20426;-72
2020/12/01 06:00:05;;;;;;;12.57;10.00;;;5.90;99.90;;;;;;5048199;28;20468;-71
2020/12/01 06:03:08;;;;;;;14.53;9.70;;;5.90;99.90;;;;;;5050296;28;20166;-73
2020/12/01 06:05:39;;;;;;;11.73;9.57;;;5.90;99.90;;;;;;5043016;28;20812;-72
2020/12/01 06:08:20;;;;;;;11.20;8.27;;;5.90;99.90;;;;;;5047366;28;20789;-72
2020/12/01 06:10:59;;;;;;;12.30;10.30;;;5.90;99.90;;;;;;5043942;28;20838;-72
2020/12/01 06:13:47;;;;;;;10.60;8.80;;;5.90;99.90;;;;;;5049953;28;20450;-72
2020/12/01 06:16:52;;;;;;;13.00;9.93;;;5.90;99.90;;;;;;5034381;28;20414;-72
2020/12/01 06:19:45;;;;;;;10.97;9.80;;;5.90;99.90;;;;;;5038853;28;20468;-72
2020/12/01 06:22:20;;;;;;;11.30;8.87;;;6.00;99.90;;;;;;5038052;28;20767;-72
2020/12/01 06:25:20;;;;;;;12.87;9.70;;;6.00;99.90;;;;;;5036263;28;20459;-73
2020/12/01 06:28:14;;;;;;;12.93;9.17;;;6.00;99.90;;;;;;5034032;28;20457;-73
2020/12/01 06:31:21;;;;;;;10.50;9.20;;;6.00;99.90;;;;;;5048619;28;20449;-73
2020/12/01 06:33:55;;;;;;;11.17;9.40;;;6.10;99.90;;;;;;5048521;28;20814;-73
2020/12/01 06:36:45;;;;;;;14.40;10.83;;;6.10;99.90;;;;;;5054412;28;20407;-73
2020/12/01 06:39:27;;;;;;;15.00;10.10;;;6.10;99.90;;;;;;5050120;28;20456;-72
2020/12/01 06:42:13;;;;;;;13.93;11.80;;;6.10;99.90;;;;;;5040711;28;20432;-72
2020/12/01 06:44:41;;;;;;;15.30;11.20;;;6.10;99.90;;;;;;5050638;28;20432;-73
2020/12/01 06:47:06;;;;;;;14.10;10.67;;;6.00;99.90;;;;;;5049170;28;20425;-72
2020/12/01 06:49:35;;;;;;;13.00;10.27;;;6.10;99.90;;;;;;5043791;28;20879;-72
2020/12/01 06:52:12;;;;;;;13.97;10.97;;;6.10;99.90;;;;;;5054114;28;20487;-73
2020/12/01 06:54:50;;;;;;;14.37;10.77;;;6.10;99.90;;;;;;5052567;28;20562;-72
2020/12/01 06:57:26;;;;;;;14.20;10.63;;;6.20;99.90;;;;;;5050927;28;21968;-72
2020/12/01 06:59:52;;;;;;;18.73;10.93;;;6.20;99.90;;;;;;5053289;28;20531;-72
2020/12/01 07:02:20;;;;;;;19.53;12.90;;;6.20;99.90;;;;;;5059258;28;20518;-72
2020/12/01 07:04:47;;;;;;;16.20;11.47;;;6.20;99.90;;;;;;5053725;28;20181;-72
2020/12/01 07:07:28;;;;;;;17.53;12.37;;;6.20;99.90;;;;;;5046354;28;20891;-72
2020/12/01 07:09:54;;;;;;;19.10;11.27;;;6.30;99.90;;;;;;5041698;28;20455;-72
2020/12/01 07:12:41;;;;;;;20.30;11.93;;;6.20;99.90;;;;;;5053268;28;20419;-73
2020/12/01 07:15:15;;;;;;;21.00;14.10;;;6.30;99.90;;;;;;5043828;28;20551;-71
2020/12/01 07:17:55;;;;;;;15.67;11.80;;;6.30;99.90;;;;;;5057021;28;20504;-72
2020/12/01 07:20:35;;;;;;;23.80;13.57;;;6.20;99.90;;;;;;5054137;28;20456;-71
2020/12/01 07:23:21;;;;;;;20.30;13.20;;;6.30;99.90;;;;;;5044270;28;20435;-73
2020/12/01 07:25:55;;;;;;;21.60;13.00;;;6.30;99.90;;;;;;5068248;28;20407;-71
2020/12/01 07:28:36;;;;;;;25.47;15.00;;;6.30;99.90;;;;;;5055540;28;20419;-70
2020/12/01 07:31:25;;;;;;;24.83;15.20;;;6.30;99.90;;;;;;5053938;28;20941;-71
2020/12/01 07:33:55;;;;;;;25.90;13.77;;;6.30;99.90;;;;;;5045317;28;20420;-73
2020/12/01 07:36:34;;;;;;;22.53;14.70;;;6.30;99.90;;;;;;5056988;28;20504;-72
2020/12/01 07:39:09;;;;;;;23.13;13.63;;;6.30;99.90;;;;;;5046452;28;20478;-71
2020/12/01 07:41:45;;;;;;;21.30;14.23;;;6.30;99.90;;;;;;5055744;28;20431;-72
2020/12/01 07:44:14;;;;;;;22.10;13.37;;;6.30;99.90;;;;;;5055337;28;20498;-72
2020/12/01 07:46:52;;;;;;;25.60;15.20;;;6.30;99.90;;;;;;5046942;28;20485;-73
2020/12/01 07:49:23;;;;;;;28.90;15.13;;;6.30;99.90;;;;;;5050074;28;20456;-72
2020/12/01 07:51:52;;;;;;;24.60;13.63;;;6.30;99.90;;;;;;5047262;28;20448;-72
2020/12/01 07:54:21;;;;;;;26.93;13.17;;;6.20;99.90;;;;;;5075972;28;20423;-71
2020/12/01 07:56:47;;;;;;;27.93;14.83;;;6.30;99.90;;;;;;5049672;28;20428;-72
2020/12/01 07:59:13;;;;;;;24.73;15.90;;;6.30;99.90;;;;;;5055166;28;20471;-72
2020/12/01 08:01:41;;;;;;;25.97;13.83;;;6.30;99.90;;;;;;5051889;28;20186;-73
2020/12/01 08:04:15;;;;;;;29.70;14.40;;;6.30;99.90;;;;;;5046277;28;20468;-73
2020/12/01 08:06:41;;;;;;;25.70;15.60;;;6.30;99.90;;;;;;5050505;28;20429;-72
2020/12/01 08:09:21;;;;;;;24.00;15.90;;;6.30;99.90;;;;;;5043251;28;20449;-73
2020/12/01 08:11:48;;;;;;;28.70;15.83;;;6.30;99.90;;;;;;5047926;28;20420;-73
2020/12/01 08:14:16;;;;;;;33.17;17.07;;;6.30;99.90;;;;;;5054249;28;20444;-73
2020/12/01 08:16:43;;;;;;;29.60;16.63;;;6.40;99.90;;;;;;5086522;28;20424;-72
2020/12/01 08:19:12;;;;;;;28.40;15.83;;;6.40;99.90;;;;;;5054092;28;20502;-72
2020/12/01 08:21:43;;;;;;;29.27;16.33;;;6.40;99.90;;;;;;5046210;28;20418;-71
2020/12/01 08:24:17;;;;;;;31.03;17.47;;;6.40;99.90;;;;;;5052027;28;20463;-71
2020/12/01 08:26:44;;;;;;;37.77;15.90;;;6.40;99.90;;;;;;5055300;28;20424;-71
2020/12/01 08:29:19;;;;;;;34.20;15.50;;;6.40;99.90;;;;;;5054374;28;20447;-71
2020/12/01 08:32:26;;;;;;;32.00;17.53;;;6.40;99.90;;;;;;5059035;28;20427;-71
2020/12/01 08:35:17;;;;;;;28.93;16.40;;;6.40;99.90;;;;;;5053020;28;20436;-71
2020/12/01 08:37:47;;;;;;;29.30;16.63;;;6.50;99.90;;;;;;5051379;28;20442;-71
2020/12/01 08:40:24;;;;;;;33.70;17.43;;;6.40;99.90;;;;;;5054070;28;20463;-71
2020/12/01 08:43:17;;;;;;;32.47;17.20;;;6.50;99.90;;;;;;5058229;28;20838;-72
2020/12/01 08:46:07;;;;;;;30.53;16.50;;;6.50;99.90;;;;;;5058632;28;20412;-72
2020/12/01 08:48:41;;;;;;;33.13;16.80;;;6.60;99.90;;;;;;5053703;28;20479;-71
2020/12/01 08:51:29;;;;;;;29.80;17.97;;;6.60;99.90;;;;;;5051371;28;20760;-72
2020/12/01 08:54:16;;;;;;;32.10;18.57;;;6.60;99.90;;;;;;5045979;28;20420;-71
2020/12/01 08:56:47;;;;;;;30.67;15.80;;;6.60;99.90;;;;;;5061346;28;20420;-71
2020/12/01 08:59:20;;;;;;;31.23;16.90;;;6.60;99.90;;;;;;5047530;28;20466;-72
2020/12/01 09:01:46;;;;;;;34.23;18.37;;;6.60;99.90;;;;;;5064510;28;20927;-72
2020/12/01 09:04:24;;;;;;;32.30;16.93;;;6.60;99.90;;;;;;5057500;28;20452;-72
2020/12/01 09:06:51;;;;;;;30.07;17.97;;;6.60;99.90;;;;;;5054221;28;20264;-72
2020/12/01 09:09:27;;;;;;;28.17;17.10;;;6.60;99.90;;;;;;5048154;28;20955;-72
2020/12/01 09:12:13;;;;;;;31.50;17.57;;;6.70;99.90;;;;;;5051026;28;20440;-72
2020/12/01 09:17:30;;;;;;;26.10;14.90;;;6.80;99.90;;;;;;5056295;28;20602;-72
2020/12/01 09:20:17;;;;;;;23.10;14.90;;;6.80;99.90;;;;;;5046919;28;20467;-72
2020/12/01 09:22:43;;;;;;;22.83;14.80;;;6.70;99.90;;;;;;5047517;28;20433;-72
2020/12/01 09:25:25;;;;;;;30.97;16.13;;;6.80;99.90;;;;;;5050781;28;20766;-72
2020/12/01 09:27:53;;;;;;;25.33;14.30;;;6.80;99.90;;;;;;5050659;28;20194;-72
2020/12/01 09:30:36;;;;;;;30.40;14.40;;;6.80;99.90;;;;;;5041621;28;20464;-72
2020/12/01 09:33:05;;;;;;;25.63;14.70;;;6.80;99.90;;;;;;5051248;28;20789;-72
2020/12/01 09:35:31;;;;;;;25.93;15.13;;;6.90;99.90;;;;;;5075342;28;20425;-71
2020/12/01 09:37:57;;;;;;;32.90;16.43;;;6.90;99.90;;;;;;5043878;28;20443;-71
2020/12/01 09:40:26;;;;;;;26.40;14.50;;;6.90;99.90;;;;;;5044595;28;20222;-72
2020/12/01 09:42:55;;;;;;;28.77;15.27;;;7.00;99.90;;;;;;5044616;28;20436;-72
2020/12/01 09:45:31;;;;;;;30.77;15.87;;;7.00;99.90;;;;;;5038766;28;20444;-72
2020/12/01 09:48:07;;;;;;;25.47;15.97;;;7.10;99.90;;;;;;5043428;28;20428;-71
2020/12/01 09:50:37;;;;;;;27.23;15.27;;;7.10;99.90;;;;;;5040146;28;20484;-72
2020/12/01 09:56:13;;;;;;;26.27;14.10;;;7.20;99.90;;;;;;5051527;28;20436;-72
2020/12/01 10:04:46;;;;;;;20.50;14.17;;;7.30;99.90;;;;;;5043919;28;20178;-72
2020/12/01 10:10:03;;;;;;;32.00;14.93;;;7.40;99.90;;;;;;5042199;28;20585;-73
2020/12/01 10:18:18;;;;;;;23.10;13.90;;;7.40;99.90;;;;;;5050548;28;20463;-70
2020/12/01 10:36:55;;;;;;;19.87;13.70;;;7.40;99.90;;;;;;5039636;28;20795;-72
2020/12/01 10:39:21;;;;;;;20.20;13.53;;;7.50;99.90;;;;;;5030729;28;20229;-73
2020/12/01 10:41:48;;;;;;;24.33;15.43;;;7.50;99.90;;;;;;5038677;28;20546;-73
2020/12/01 10:44:14;;;;;;;23.23;14.63;;;7.60;99.90;;;;;;5044062;28;20805;-73
2020/12/01 10:46:39;;;;;;;20.20;13.07;;;7.60;99.90;;;;;;5045941;28;20444;-72
2020/12/01 10:49:05;;;;;;;18.93;12.43;;;7.50;99.90;;;;;;5047233;28;20456;-73
2020/12/01 10:51:32;;;;;;;22.27;13.57;;;7.50;99.90;;;;;;5047635;28;20178;-73
2020/12/01 10:53:58;;;;;;;20.50;12.60;;;7.50;99.90;;;;;;5038720;28;20188;-73
2020/12/01 10:56:24;;;;;;;18.97;12.30;;;7.60;99.90;;;;;;5038005;28;20432;-72
2020/12/01 10:58:49;;;;;;;25.30;14.50;;;7.60;99.90;;;;;;5045981;28;20472;-72
2020/12/01 11:01:15;;;;;;;21.30;12.63;;;7.60;99.90;;;;;;5051666;28;20186;-72
2020/12/01 11:03:41;;;;;;;15.73;11.33;;;7.70;99.90;;;;;;5057331;28;20258;-72
2020/12/01 11:06:06;;;;;;;14.10;10.60;;;7.70;99.90;;;;;;5055956;28;20186;-72
2020/12/01 11:08:32;;;;;;;15.47;10.60;;;7.70;99.90;;;;;;5037633;28;20299;-71
2020/12/01 11:10:57;;;;;;;14.67;10.30;;;7.70;99.90;;;;;;5032837;28;20206;-72
2020/12/01 11:13:23;;;;;;;13.90;9.10;;;7.60;99.90;;;;;;5049726;28;20196;-72
2020/12/01 11:15:48;;;;;;;14.30;9.30;;;7.60;99.90;;;;;;5050541;28;20178;-72
2020/12/01 11:18:14;;;;;;;15.80;9.97;;;7.50;99.90;;;;;;5036354;28;20182;-72
2020/12/01 11:20:39;;;;;;;11.57;10.03;;;7.50;99.90;;;;;;5048882;28;20284;-72
2020/12/01 11:23:05;;;;;;;13.53;10.13;;;7.50;99.90;;;;;;5050563;28;20189;-72
2020/12/01 11:25:30;;;;;;;12.77;9.13;;;7.40;99.90;;;;;;5054815;28;20180;-74
2020/12/01 11:27:56;;;;;;;13.30;9.20;;;7.40;99.90;;;;;;5052333;28;20180;-73
2020/12/01 11:30:23;;;;;;;12.60;9.30;;;7.40;99.90;;;;;;5054729;28;20209;-73
2020/12/01 11:32:49;;;;;;;16.90;11.17;;;7.50;99.90;;;;;;5049559;28;20186;-73
2020/12/01 11:35:16;;;;;;;14.13;11.10;;;7.50;99.90;;;;;;5076884;28;20837;-72
2020/12/01 11:37:42;;;;;;;14.00;9.67;;;7.50;99.90;;;;;;5046309;28;20224;-72
2020/12/01 11:40:08;;;;;;;14.80;10.20;;;7.50;99.90;;;;;;5047877;28;20817;-72
2020/12/01 11:42:34;;;;;;;15.37;9.30;;;7.50;99.90;;;;;;5032401;28;20180;-72
2020/12/01 11:45:00;;;;;;;11.30;8.37;;;7.50;99.90;;;;;;5034186;28;20487;-73
2020/12/01 11:47:25;;;;;;;12.23;8.60;;;7.60;99.90;;;;;;5048257;28;20455;-71
2020/12/01 11:49:51;;;;;;;13.80;9.53;;;7.50;99.90;;;;;;5054536;28;20205;-71
2020/12/01 11:52:17;;;;;;;12.00;9.13;;;7.60;99.90;;;;;;5049581;28;20659;-73
2020/12/01 11:54:43;;;;;;;14.87;9.60;;;7.60;99.90;;;;;;5036731;28;20265;-73
2020/12/01 11:57:08;;;;;;;14.00;9.60;;;7.70;99.90;;;;;;5051646;28;20193;-74
2020/12/01 11:59:34;;;;;;;21.50;9.40;;;7.70;99.90;;;;;;5051838;28;20309;-71
2020/12/01 12:01:59;;;;;;;13.17;9.70;;;7.70;99.90;;;;;;5049653;28;20198;-72
2020/12/01 12:07:47;;;;;;;14.83;9.60;;;7.90;99.90;;;;;;5039790;28;20184;-72
2020/12/01 12:10:12;;;;;;;12.00;9.43;;;7.90;99.90;;;;;;5046746;28;20461;-72
2020/12/01 12:12:38;;;;;;;11.50;8.10;;;7.90;99.90;;;;;;5051427;28;20187;-72
2020/12/01 12:15:05;;;;;;;10.77;8.53;;;7.90;99.90;;;;;;5037789;28;20184;-72
2020/12/01 12:17:30;;;;;;;13.07;10.10;;;7.90;99.90;;;;;;5048807;28;20313;-72
2020/12/01 12:19:56;;;;;;;10.77;8.60;;;7.90;99.90;;;;;;5032164;28;20536;-71
2020/12/01 12:22:21;;;;;;;9.20;8.23;;;7.90;99.90;;;;;;5033730;28;20179;-72
2020/12/01 12:24:47;;;;;;;15.00;9.57;;;8.00;99.90;;;;;;5055195;28;20189;-71
2020/12/01 12:27:13;;;;;;;14.97;9.93;;;7.90;99.90;;;;;;5055150;28;20221;-72
2020/12/01 12:29:38;;;;;;;11.83;9.87;;;7.90;99.90;;;;;;5056587;28;20571;-72
2020/12/01 12:32:04;;;;;;;13.00;9.87;;;7.90;99.90;;;;;;5043885;28;20773;-72
2020/12/01 12:34:29;;;;;;;13.73;8.60;;;7.90;99.90;;;;;;5049298;28;20221;-73
2020/12/01 12:36:55;;;;;;;13.47;9.20;;;8.00;99.90;;;;;;5061204;28;20181;-72
2020/12/01 12:39:21;;;;;;;11.60;8.70;;;7.90;99.90;;;;;;5035699;28;20214;-73
2020/12/01 12:41:47;;;;;;;15.13;9.37;;;7.90;99.90;;;;;;5035513;28;20173;-73
2020/12/01 12:44:13;;;;;;;11.17;8.67;;;7.90;99.90;;;;;;5047033;28;20425;-73
2020/12/01 12:46:39;;;;;;;10.87;8.87;;;7.90;99.90;;;;;;5055654;28;20573;-73
2020/12/01 12:49:06;;;;;;;12.80;9.73;;;7.90;99.90;;;;;;5045586;28;21304;-73
2020/12/01 12:51:32;;;;;;;11.90;9.40;;;8.00;99.90;;;;;;5040211;28;20559;-70
2020/12/01 12:53:57;;;;;;;10.87;8.47;;;8.00;99.90;;;;;;5055218;28;20420;-71
2020/12/01 12:56:23;;;;;;;8.30;6.63;;;8.00;99.90;;;;;;5055530;28;20420;-72
2020/12/01 12:58:51;;;;;;;8.87;7.90;;;8.00;99.90;;;;;;5054041;28;20277;-72
2020/12/01 13:01:17;;;;;;;9.27;7.97;;;8.10;99.90;;;;;;5039877;28;20416;-72
2020/12/01 13:03:42;;;;;;;11.80;7.80;;;8.10;99.90;;;;;;5035929;28;20409;-72
2020/12/01 13:06:08;;;;;;;9.60;7.37;;;8.00;99.90;;;;;;5056582;28;20644;-71
2020/12/01 13:08:33;;;;;;;9.43;8.13;;;8.10;99.90;;;;;;5054091;28;20205;-71
2020/12/01 13:10:59;;;;;;;9.93;7.60;;;8.10;99.90;;;;;;5054911;28;20551;-72
2020/12/01 13:13:25;;;;;;;8.70;7.07;;;8.10;99.90;;;;;;5038045;28;20206;-71
2020/12/01 13:15:51;;;;;;;9.83;7.93;;;8.10;99.90;;;;;;5039501;28;20413;-72
2020/12/01 13:18:16;;;;;;;9.93;7.80;;;8.20;99.90;;;;;;5054622;28;20444;-71
2020/12/01 13:20:42;;;;;;;8.77;7.87;;;8.20;99.90;;;;;;5056030;28;20435;-71
2020/12/01 13:23:07;;;;;;;11.43;8.60;;;8.20;99.90;;;;;;5054758;28;20511;-72
2020/12/01 13:25:33;;;;;;;10.87;7.40;;;8.20;99.90;;;;;;5054732;28;20177;-71
2020/12/01 13:27:59;;;;;;;8.77;7.20;;;8.20;99.90;;;;;;5035149;28;20236;-72
2020/12/01 13:30:24;;;;;;;9.03;7.33;;;8.20;99.90;;;;;;5035022;28;20241;-72
2020/12/01 13:32:50;;;;;;;8.10;7.10;;;8.20;99.90;;;;;;5036535;28;20540;-72
2020/12/01 13:35:17;;;;;;;8.67;7.10;;;8.20;99.90;;;;;;5055026;28;20188;-72
2020/12/01 13:37:44;;;;;;;7.93;6.73;;;8.20;99.90;;;;;;5057518;28;20590;-72
2020/12/01 13:40:13;;;;;;;9.17;7.03;;;8.20;99.90;;;;;;5050936;28;20471;-72
2020/12/01 13:42:39;;;;;;;11.60;8.17;;;8.20;99.90;;;;;;5035471;28;20448;-71
2020/12/01 13:45:06;;;;;;;8.10;6.47;;;8.20;99.90;;;;;;5035950;28;20553;-72